createdAt,value
2016-10-06T14:31:05.835Z,25.12
2016-10-06T14:40:37.819Z,25.12
2016-10-06T14:41:48.353Z,25.42
2016-10-06T14:43:13.421Z,25.75
2016-10-06T14:44:23.962Z,26.06
2016-10-06T14:45:34.601Z,26.08
2016-10-06T14:46:45.135Z,25.81
2016-10-06T14:47:55.673Z,25.9
2016-10-06T14:49:06.225Z,25.9
2016-10-06T14:50:16.974Z,25.89
2016-10-06T14:51:27.762Z,25.64
2016-10-06T14:52:38.309Z,25.67
2016-10-06T14:53:48.864Z,25.69
2016-10-06T14:54:59.402Z,25.67
2016-10-06T14:56:09.953Z,25.64
2016-10-06T14:57:20.495Z,25.46
2016-10-06T14:58:31.035Z,25.45
2016-10-06T14:59:41.501Z,25.34
2016-10-06T15:00:51.951Z,25.14
2016-10-06T15:02:02.402Z,25.05
2016-10-06T15:03:27.646Z,24.87
2016-10-06T15:04:38.092Z,24.87
2016-10-06T15:05:48.542Z,24.75
2016-10-06T15:06:59.000Z,24.79
2016-10-06T15:08:09.455Z,24.63
2016-10-06T15:09:19.901Z,24.6
2016-10-06T15:10:30.288Z,24.34
2016-10-06T15:11:40.623Z,24.14
2016-10-06T15:13:05.770Z,23.72
2016-10-06T15:14:16.110Z,23.54
2016-10-06T15:15:26.440Z,23.38
2016-10-06T15:16:36.770Z,23.38
2016-10-06T15:17:47.098Z,23.39
2016-10-06T15:18:57.424Z,23.47
2016-10-06T15:20:07.751Z,23.5
2016-10-06T15:21:18.081Z,23.49
2016-10-06T15:22:42.983Z,23.47
2016-10-06T15:23:53.312Z,23.53
2016-10-06T15:25:04.114Z,23.52
2016-10-06T15:26:14.443Z,23.44
2016-10-06T15:27:24.767Z,23.47
2016-10-06T15:28:35.155Z,23.49
2016-10-06T15:29:45.481Z,23.5
2016-10-06T15:30:55.806Z,23.57
2016-10-06T15:32:06.129Z,23.59
2016-10-06T15:33:16.457Z,23.59
2016-10-06T15:34:26.801Z,23.71
2016-10-06T15:35:37.383Z,23.78
2016-10-06T15:36:47.705Z,23.72
2016-10-06T15:37:58.031Z,23.84
2016-10-06T15:39:08.363Z,23.96
2016-10-06T15:40:18.685Z,24
2016-10-06T15:41:29.265Z,24.08
2016-10-06T15:42:39.597Z,24.15
2016-10-06T15:43:49.931Z,24.11
2016-10-06T15:45:00.255Z,24.18
2016-10-06T15:46:10.585Z,24.24
2016-10-06T15:47:21.162Z,24.24
2016-10-06T15:48:31.483Z,24.31
2016-10-06T15:49:41.809Z,24.36
2016-10-06T15:50:52.134Z,24.45
2016-10-06T15:52:02.465Z,24.45
2016-10-06T15:53:12.858Z,24.44
2016-10-06T15:54:23.186Z,24.45
2016-10-06T15:55:33.516Z,24.42
2016-10-06T15:56:58.418Z,24.41
2016-10-06T15:58:08.753Z,24.45
2016-10-06T15:59:19.081Z,24.59
2016-10-06T16:00:29.408Z,24.42
2016-10-06T16:01:39.737Z,24.49
2016-10-06T16:03:04.631Z,24.49
2016-10-06T16:04:14.957Z,24.56
2016-10-06T16:05:39.854Z,24.64
2016-10-06T16:06:50.182Z,24.67
2016-10-06T16:08:00.513Z,24.63
2016-10-06T16:09:10.839Z,24.67
2016-10-06T16:10:21.171Z,24.63
2016-10-06T16:11:31.504Z,24.48
2016-10-06T16:12:41.832Z,24.44
2016-10-06T16:13:52.160Z,24.49
2016-10-06T16:15:02.490Z,24.46
2016-10-06T16:16:12.822Z,24.46
2016-10-06T16:17:23.152Z,24.52
2016-10-06T16:18:33.477Z,24.55
2016-10-06T16:19:43.807Z,24.48
2016-10-06T16:20:54.384Z,24.52
2016-10-06T16:22:04.713Z,24.6
2016-10-06T16:23:15.039Z,24.64
2016-10-06T16:24:25.364Z,24.55
2016-10-06T16:25:35.714Z,24.55
2016-10-06T16:26:46.048Z,24.48
2016-10-06T16:29:35.843Z,24.51
2016-10-06T16:30:46.174Z,24.53
2016-10-06T16:31:56.500Z,24.56
2016-10-06T16:33:06.830Z,24.67
2016-10-06T16:34:17.639Z,24.75
2016-10-06T16:35:27.971Z,24.79
2016-10-06T16:36:38.314Z,24.89
2016-10-06T16:37:48.654Z,25.01
2016-10-06T16:38:58.979Z,25.04
2016-10-06T16:40:09.309Z,24.94
2016-10-06T16:41:20.122Z,25.02
2016-10-06T16:42:30.457Z,25.01
2016-10-06T16:43:40.787Z,25.02
2016-10-06T16:44:51.121Z,24.99
2016-10-06T16:46:01.968Z,24.99
2016-10-06T16:47:12.304Z,24.99
2016-10-06T16:48:22.629Z,25.09
2016-10-06T16:49:32.955Z,25.11
2016-10-06T16:50:43.339Z,25.11
2016-10-06T16:52:08.329Z,25.11
2016-10-06T16:53:18.780Z,25.16
2016-10-06T16:54:29.225Z,25.12
2016-10-06T16:55:39.671Z,25.24
2016-10-06T16:56:51.477Z,25.17
2016-10-06T16:58:02.137Z,25.11
2016-10-06T16:59:12.584Z,25.23
2016-10-06T17:00:23.028Z,25.16
2016-10-06T17:01:33.475Z,25.12
2016-10-06T17:02:43.926Z,25.26
2016-10-06T17:03:54.379Z,25.14
2016-10-06T17:05:04.835Z,25.16
2016-10-06T17:06:15.534Z,25.11
2016-10-06T17:07:40.523Z,25.01
2016-10-06T17:08:50.983Z,24.87
2016-10-06T17:10:01.440Z,24.99
2016-10-06T17:11:11.991Z,24.97
2016-10-06T17:12:22.440Z,24.92
2016-10-06T17:13:32.948Z,24.87
2016-10-06T17:14:43.507Z,24.92
2016-10-06T17:15:54.047Z,24.9
2016-10-06T17:17:04.842Z,24.59
2016-10-06T17:18:15.389Z,24.44
2016-10-06T17:19:25.930Z,24.27
2016-10-06T17:20:36.471Z,24.05
2016-10-06T17:21:47.015Z,23.69
2016-10-06T17:22:57.902Z,23.57
2016-10-06T17:24:08.384Z,23.64
2016-10-06T17:25:18.802Z,23.57
2016-10-06T17:26:29.239Z,23.47
2016-10-06T17:27:39.658Z,23.38
2016-10-06T17:28:50.324Z,23.21
2016-10-06T17:30:00.743Z,23.21
2016-10-06T17:31:11.164Z,23.22
2016-10-06T17:32:21.580Z,23.21
2016-10-06T17:33:31.996Z,23.32
2016-10-06T17:34:42.416Z,23.44
2016-10-06T17:35:52.842Z,23.39
2016-10-06T17:37:18.418Z,23.42
2016-10-06T17:38:29.326Z,23.41
2016-10-06T17:39:54.603Z,23.35
2016-10-06T17:41:05.019Z,23.32
2016-10-06T17:42:15.433Z,23.11
2016-10-06T17:43:25.866Z,23.07
2016-10-06T17:44:36.289Z,23.29
2016-10-06T17:46:01.270Z,23.34
2016-10-06T17:47:11.706Z,23.35
2016-10-06T17:48:22.128Z,23.31
2016-10-06T17:49:32.567Z,23.32
2016-10-06T17:50:42.997Z,23.16
2016-10-06T17:51:53.426Z,23.29
2016-10-06T17:53:03.876Z,23.34
2016-10-06T17:54:14.855Z,23.34
2016-10-06T17:55:25.332Z,23.16
2016-10-06T17:56:36.334Z,23.31
2016-10-06T17:57:47.163Z,23.11
2016-10-06T17:58:58.101Z,23.03
2016-10-06T18:00:08.592Z,22.82
2016-10-06T18:01:19.093Z,22.54
2016-10-06T18:02:29.596Z,22.66
2016-10-06T18:03:40.100Z,22.63
2016-10-06T18:04:50.607Z,22.78
2016-10-06T18:06:01.580Z,22.86
2016-10-06T18:07:12.094Z,22.88
2016-10-06T18:08:22.562Z,22.96
2016-10-06T18:09:33.029Z,23.09
2016-10-06T18:10:43.460Z,23.06
2016-10-06T18:11:53.887Z,23.26
2016-10-06T18:13:04.326Z,23.21
2016-10-06T18:14:14.746Z,23.25
2016-10-06T18:15:39.815Z,23.41
2016-10-06T18:16:50.234Z,23.41
2016-10-06T18:18:00.654Z,23.37
2016-10-06T18:19:11.068Z,23.41
2016-10-06T18:20:36.136Z,23.53
2016-10-06T18:21:46.551Z,23.42
2016-10-06T18:22:56.964Z,23.38
2016-10-06T18:24:08.084Z,23.35
2016-10-06T18:25:18.503Z,23.41
2016-10-06T18:26:28.928Z,23.37
2016-10-06T18:27:39.349Z,23.5
2016-10-06T18:28:49.764Z,23.54
2016-10-06T18:30:00.180Z,23.44
2016-10-06T18:31:10.670Z,23.53
2016-10-06T18:32:21.213Z,23.45
2016-10-06T18:33:31.759Z,23.49
2016-10-06T18:34:42.309Z,23.54
2016-10-06T18:35:53.032Z,23.49
2016-10-06T18:37:03.565Z,23.62
2016-10-06T18:38:14.105Z,23.41
2016-10-06T18:39:24.642Z,23.45
2016-10-06T18:40:35.677Z,23.38
2016-10-06T18:41:46.229Z,23.14
2016-10-06T18:42:56.767Z,22.97
2016-10-06T18:44:07.411Z,22.84
2016-10-06T18:45:17.949Z,22.66
2016-10-06T18:46:28.483Z,22.63
2016-10-06T18:47:39.019Z,22.61
2016-10-06T18:48:49.555Z,22.49
2016-10-06T18:50:00.094Z,22.63
2016-10-06T18:51:10.631Z,22.45
2016-10-06T18:52:21.167Z,22.23
2016-10-06T18:53:31.704Z,22.29
2016-10-06T18:54:42.240Z,22.15
2016-10-06T18:55:53.292Z,22.19
2016-10-06T18:57:03.829Z,22.19
2016-10-06T18:58:28.889Z,22.06
2016-10-06T18:59:39.427Z,22.08
2016-10-06T19:00:49.973Z,21.93
2016-10-06T19:02:00.511Z,21.66
2016-10-06T19:03:11.047Z,21.63
2016-10-06T19:04:22.021Z,21.37
2016-10-06T19:05:32.439Z,21.46
2016-10-06T19:06:42.856Z,21.37
2016-10-06T19:07:53.272Z,21.33
2016-10-06T19:09:03.686Z,21.33
2016-10-06T19:11:39.334Z,21.21
2016-10-06T19:12:50.249Z,21.19
2016-10-06T19:14:15.215Z,21.06
2016-10-06T19:15:25.635Z,21.05
2016-10-06T19:16:36.052Z,21.11
2016-10-06T19:18:01.116Z,21.08
2016-10-06T19:19:11.538Z,20.98
2016-10-06T19:20:21.960Z,20.91
2016-10-06T19:21:32.371Z,20.88
2016-10-06T19:22:42.785Z,20.73
2016-10-06T19:23:53.206Z,20.68
2016-10-06T19:27:53.656Z,20.41
2016-10-06T19:29:04.020Z,20.37
2016-10-06T19:30:14.830Z,20.19
2016-10-06T19:31:25.170Z,20.05
2016-10-06T19:32:35.496Z,19.94
2016-10-06T19:33:45.822Z,19.79
2016-10-06T19:34:56.624Z,19.86
2016-10-06T19:36:07.424Z,19.7
2016-10-06T19:37:17.748Z,19.61
2016-10-06T19:38:28.068Z,19.67
2016-10-06T19:39:38.643Z,19.67
2016-10-06T19:40:48.969Z,19.68
2016-10-06T19:41:59.290Z,19.67
2016-10-06T19:43:09.613Z,19.55
2016-10-06T19:44:19.935Z,19.64
2016-10-06T19:45:30.358Z,19.58
2016-10-06T19:46:40.680Z,19.64
2016-10-06T19:47:51.002Z,19.5
2016-10-06T19:49:01.326Z,19.52
2016-10-06T19:50:11.651Z,19.47
2016-10-06T19:51:22.223Z,19.45
2016-10-06T19:52:32.547Z,19.39
2016-10-06T19:53:42.884Z,19.3
2016-10-06T19:54:53.206Z,19.28
2016-10-06T19:56:03.529Z,19.07
2016-10-06T19:57:14.104Z,18.96
2016-10-06T19:58:24.431Z,19.01
2016-10-06T19:59:34.753Z,18.93
2016-10-06T20:00:45.083Z,18.79
2016-10-06T20:01:55.405Z,18.66
2016-10-06T20:03:05.737Z,18.78
2016-10-06T20:04:15.784Z,18.65
2016-10-06T20:05:25.613Z,18.64
2016-10-06T20:06:35.438Z,18.59
2016-10-06T20:07:45.259Z,18.54
2016-10-06T20:08:55.084Z,18.66
2016-10-06T20:10:04.911Z,18.49
2016-10-06T20:11:29.305Z,18.38
2016-10-06T20:12:39.131Z,18.34
2016-10-06T20:13:48.958Z,18.34
2016-10-06T20:14:58.883Z,18.32
2016-10-06T20:16:08.709Z,18.31
2016-10-06T20:17:18.533Z,18.26
2016-10-06T20:18:28.360Z,18.34
2016-10-06T20:19:38.446Z,18.36
2016-10-06T20:20:48.270Z,18.36
2016-10-06T20:21:58.092Z,18.34
2016-10-06T20:23:07.962Z,18.39
2016-10-06T20:24:17.782Z,18.35
2016-10-06T20:25:27.702Z,18.14
2016-10-06T20:26:37.527Z,18.14
2016-10-06T20:27:47.352Z,18.09
2016-10-06T20:28:57.173Z,18.02
2016-10-06T20:30:06.997Z,18.04
2016-10-06T20:31:17.077Z,18.02
2016-10-06T20:32:26.900Z,17.98
2016-10-06T20:33:36.726Z,18.09
2016-10-06T20:34:46.570Z,17.99
2016-10-06T20:35:56.394Z,18.02
2016-10-06T20:37:21.038Z,18.02
2016-10-06T20:38:45.436Z,17.91
2016-10-06T20:39:55.261Z,18.01
2016-10-06T20:41:05.085Z,17.92
2016-10-06T20:42:14.912Z,18.04
2016-10-06T20:43:24.835Z,17.98
2016-10-06T20:44:34.654Z,17.92
2016-10-06T20:45:44.487Z,17.84
2016-10-06T20:46:54.309Z,17.94
2016-10-06T20:48:04.137Z,18.05
2016-10-06T20:49:13.957Z,18.07
2016-10-06T20:50:23.779Z,18.02
2016-10-06T20:51:33.600Z,18.01
2016-10-06T20:52:43.424Z,18.05
2016-10-06T20:53:53.249Z,18.11
2016-10-06T20:55:03.072Z,18.04
2016-10-06T20:56:12.895Z,18.04
2016-10-06T20:57:22.723Z,17.99
2016-10-06T20:58:32.580Z,18.01
2016-10-06T20:59:42.476Z,17.91
2016-10-06T21:00:52.368Z,17.94
2016-10-06T21:02:02.267Z,17.87
2016-10-06T21:03:12.157Z,17.89
2016-10-06T21:04:22.049Z,17.86
2016-10-06T21:05:31.950Z,17.84
2016-10-06T21:06:41.851Z,17.83
2016-10-06T21:07:51.744Z,17.68
2016-10-06T21:10:26.081Z,17.7
2016-10-06T21:11:50.536Z,17.73
2016-10-06T21:13:00.437Z,17.74
2016-10-06T21:14:10.345Z,17.73
2016-10-06T21:15:20.251Z,17.73
2016-10-06T21:16:44.698Z,17.71
2016-10-06T21:17:54.594Z,17.7
2016-10-06T21:19:04.507Z,17.71
2016-10-06T21:20:14.404Z,17.66
2016-10-06T21:21:24.300Z,17.68
2016-10-06T21:22:34.448Z,17.6
2016-10-06T21:23:44.348Z,17.55
2016-10-06T21:24:54.245Z,17.54
2016-10-06T21:26:04.144Z,17.53
2016-10-06T21:27:14.036Z,17.51
2016-10-06T21:28:23.932Z,17.66
2016-10-06T21:29:33.827Z,17.6
2016-10-06T21:30:43.878Z,17.55
2016-10-06T21:31:54.263Z,17.63
2016-10-06T21:33:04.160Z,17.54
2016-10-06T21:34:14.054Z,17.53
2016-10-06T21:35:23.948Z,17.63
2016-10-06T21:36:33.844Z,17.46
2016-10-06T21:37:58.290Z,17.6
2016-10-06T21:39:08.195Z,17.53
2016-10-06T21:40:18.092Z,17.62
2016-10-06T21:41:27.986Z,17.71
2016-10-06T21:42:38.132Z,17.68
2016-10-06T21:43:48.027Z,17.68
2016-10-06T21:44:57.931Z,17.65
2016-10-06T21:46:07.828Z,17.49
2016-10-06T21:47:17.727Z,17.51
2016-10-06T21:48:27.622Z,17.53
2016-10-06T21:49:37.527Z,17.51
2016-10-06T21:50:47.429Z,17.4
2016-10-06T21:51:57.324Z,17.45
2016-10-06T21:53:07.220Z,17.46
2016-10-06T21:55:41.559Z,17.46
2016-10-06T21:57:06.045Z,17.4
2016-10-06T21:58:16.043Z,17.45
2016-10-06T21:59:25.940Z,17.36
2016-10-06T22:00:35.841Z,17.38
2016-10-06T22:01:45.737Z,17.32
2016-10-06T22:02:55.634Z,17.35
2016-10-06T22:05:29.977Z,17.21
2016-10-06T22:06:39.873Z,17.32
2016-10-06T22:07:49.777Z,17.25
2016-10-06T22:08:59.679Z,17.2
2016-10-06T22:11:34.024Z,17.33
2016-10-06T22:12:43.921Z,17.27
2016-10-06T22:13:53.816Z,17.27
2016-10-06T22:15:03.737Z,17.18
2016-10-06T22:16:13.632Z,17.22
2016-10-06T22:17:23.531Z,17.28
2016-10-06T22:18:33.430Z,17.27
2016-10-06T22:19:43.327Z,17.22
2016-10-06T22:20:53.471Z,17.28
2016-10-06T22:22:03.366Z,17.25
2016-10-06T22:23:13.262Z,17.3
2016-10-06T22:24:23.159Z,17.33
2016-10-06T22:25:33.056Z,17.18
2016-10-06T22:26:43.097Z,17.18
2016-10-06T22:27:53.094Z,17.09
2016-10-06T22:29:03.585Z,17.12
2016-10-06T22:30:13.582Z,17.14
2016-10-06T22:31:23.574Z,17.22
2016-10-06T22:32:33.566Z,17.17
2016-10-06T22:33:43.559Z,17.24
2016-10-06T22:34:53.554Z,17.24
2016-10-06T22:36:03.549Z,17.28
2016-10-06T22:37:13.556Z,17.25
2016-10-06T22:38:23.550Z,17.2
2016-10-06T22:39:48.068Z,17.15
2016-10-06T22:40:58.062Z,17.15
2016-10-06T22:42:08.055Z,17.2
2016-10-06T22:43:18.048Z,17.2
2016-10-06T22:44:28.053Z,17.17
2016-10-06T22:45:38.044Z,17.2
2016-10-06T22:46:48.037Z,17.28
2016-10-06T22:47:58.035Z,17.15
2016-10-06T22:49:08.026Z,17.18
2016-10-06T22:50:18.019Z,17.07
2016-10-06T22:51:28.012Z,17.17
2016-10-06T22:52:38.503Z,17.21
2016-10-06T22:53:48.498Z,17.15
2016-10-06T22:54:58.495Z,17.15
2016-10-06T22:56:08.486Z,17.21
2016-10-06T22:57:18.483Z,17.15
2016-10-06T22:58:28.477Z,17.15
2016-10-06T22:59:38.441Z,17.15
2016-10-06T23:00:48.338Z,17.17
2016-10-06T23:03:22.680Z,17.2
2016-10-06T23:04:32.582Z,17.17
2016-10-06T23:05:42.486Z,17.14
2016-10-06T23:06:52.631Z,17.21
2016-10-06T23:08:02.529Z,17.28
2016-10-06T23:09:12.426Z,17.35
2016-10-06T23:10:22.328Z,17.33
2016-10-06T23:11:32.230Z,17.38
2016-10-06T23:12:42.137Z,17.3
2016-10-06T23:13:52.039Z,17.27
2016-10-06T23:15:01.937Z,17.35
2016-10-06T23:16:11.840Z,17.39
2016-10-06T23:17:21.733Z,17.4
2016-10-06T23:18:31.633Z,17.46
2016-10-06T23:19:41.531Z,17.39
2016-10-06T23:20:51.427Z,17.39
2016-10-06T23:22:01.323Z,17.33
2016-10-06T23:23:11.317Z,17.32
2016-10-06T23:24:21.225Z,17.32
2016-10-06T23:25:31.124Z,17.33
2016-10-06T23:26:41.020Z,17.39
2016-10-06T23:27:50.919Z,17.33
2016-10-06T23:29:00.815Z,17.36
2016-10-06T23:30:10.730Z,17.4
2016-10-06T23:31:20.626Z,17.47
2016-10-06T23:32:30.522Z,17.42
2016-10-06T23:33:40.451Z,17.46
2016-10-06T23:34:50.447Z,17.33
2016-10-06T23:36:00.440Z,17.38
2016-10-06T23:37:10.433Z,17.17
2016-10-06T23:38:20.427Z,17.14
2016-10-06T23:39:30.419Z,17.12
2016-10-06T23:40:40.409Z,17.12
2016-10-06T23:41:50.401Z,17.03
2016-10-06T23:43:14.918Z,16.99
2016-10-06T23:44:24.910Z,17
2016-10-06T23:45:34.904Z,16.91
2016-10-06T23:46:44.999Z,16.87
2016-10-06T23:47:54.992Z,16.9
2016-10-06T23:49:04.992Z,17.02
2016-10-06T23:50:14.990Z,16.98
2016-10-06T23:51:25.239Z,16.95
2016-10-06T23:52:35.230Z,17.02
2016-10-06T23:53:45.220Z,17.02
2016-10-06T23:54:55.210Z,16.99
2016-10-06T23:56:05.201Z,16.98
2016-10-06T23:57:15.191Z,16.99
2016-10-06T23:58:25.144Z,17
2016-10-06T23:59:35.059Z,17
